sensor_id;sensor_type;location;lat;lon;timestamp;P1;durP1;ratioP1;P2;durP2;ratioP2
70757;SDS011;59316;52.964;7.102;2022-07-29T00:03:57;3.47;;;2.40;;
70757;SDS011;59316;52.964;7.102;2022-07-29T00:09:16;4.47;;;2.35;;
70757;SDS011;59316;52.964;7.102;2022-07-29T00:14:36;3.75;;;2.70;;
70757;SDS011;59316;52.964;7.102;2022-07-29T00:19:56;3.38;;;2.58;;
70757;SDS011;59316;52.964;7.102;2022-07-29T00:25:16;3.00;;;2.58;;
70757;SDS011;59316;52.964;7.102;2022-07-29T00:30:35;5.35;;;2.58;;
70757;SDS011;59316;52.964;7.102;2022-07-29T00:35:55;3.70;;;2.60;;
70757;SDS011;59316;52.964;7.102;2022-07-29T00:41:14;3.58;;;2.20;;
70757;SDS011;59316;52.964;7.102;2022-07-29T00:46:34;3.65;;;2.50;;
70757;SDS011;59316;52.964;7.102;2022-07-29T00:51:54;5.25;;;2.78;;
70757;SDS011;59316;52.964;7.102;2022-07-29T00:57:13;2.97;;;2.15;;
70757;SDS011;59316;52.964;7.102;2022-07-29T01:02:33;2.92;;;2.55;;
70757;SDS011;59316;52.964;7.102;2022-07-29T01:07:53;3.75;;;2.47;;
70757;SDS011;59316;52.964;7.102;2022-07-29T01:13:14;6.63;;;3.00;;
70757;SDS011;59316;52.964;7.102;2022-07-29T01:18:37;3.50;;;2.67;;
70757;SDS011;59316;52.964;7.102;2022-07-29T01:29:45;5.22;;;2.75;;
70757;SDS011;59316;52.964;7.102;2022-07-29T01:35:26;6.35;;;2.63;;
70757;SDS011;59316;52.964;7.102;2022-07-29T01:41:12;6.43;;;2.47;;
70757;SDS011;59316;52.964;7.102;2022-07-29T01:46:38;5.30;;;2.40;;
70757;SDS011;59316;52.964;7.102;2022-07-29T01:52:05;6.05;;;2.58;;
70757;SDS011;59316;52.964;7.102;2022-07-29T01:57:35;3.85;;;2.28;;
70757;SDS011;59316;52.964;7.102;2022-07-29T02:02:59;2.75;;;2.30;;
70757;SDS011;59316;52.964;7.102;2022-07-29T02:08:30;4.43;;;2.55;;
70757;SDS011;59316;52.964;7.102;2022-07-29T02:13:53;4.03;;;2.30;;
70757;SDS011;59316;52.964;7.102;2022-07-29T02:19:16;5.15;;;2.53;;
70757;SDS011;59316;52.964;7.102;2022-07-29T02:24:38;4.90;;;2.40;;
70757;SDS011;59316;52.964;7.102;2022-07-29T02:30:00;5.20;;;2.30;;
70757;SDS011;59316;52.964;7.102;2022-07-29T02:35:22;4.75;;;2.70;;
70757;SDS011;59316;52.964;7.102;2022-07-29T02:40:42;4.18;;;2.20;;
70757;SDS011;59316;52.964;7.102;2022-07-29T02:46:07;5.47;;;2.47;;
70757;SDS011;59316;52.964;7.102;2022-07-29T02:57:51;2.90;;;2.15;;
70757;SDS011;59316;52.964;7.102;2022-07-29T03:03:20;2.83;;;2.05;;
70757;SDS011;59316;52.964;7.102;2022-07-29T03:08:41;3.42;;;2.00;;
70757;SDS011;59316;52.964;7.102;2022-07-29T03:14:04;3.28;;;2.00;;
70757;SDS011;59316;52.964;7.102;2022-07-29T03:19:24;3.55;;;1.90;;
70757;SDS011;59316;52.964;7.102;2022-07-29T03:24:46;5.30;;;2.10;;
70757;SDS011;59316;52.964;7.102;2022-07-29T03:30:06;4.30;;;1.90;;
70757;SDS011;59316;52.964;7.102;2022-07-29T03:35:26;4.93;;;2.00;;
70757;SDS011;59316;52.964;7.102;2022-07-29T03:40:48;3.83;;;1.85;;
70757;SDS011;59316;52.964;7.102;2022-07-29T03:46:13;5.70;;;2.22;;
70757;SDS011;59316;52.964;7.102;2022-07-29T03:51:35;3.38;;;2.05;;
70757;SDS011;59316;52.964;7.102;2022-07-29T03:56:55;2.72;;;1.73;;
70757;SDS011;59316;52.964;7.102;2022-07-29T04:02:19;5.75;;;2.03;;
70757;SDS011;59316;52.964;7.102;2022-07-29T04:07:40;2.55;;;1.83;;
70757;SDS011;59316;52.964;7.102;2022-07-29T04:13:03;3.00;;;2.10;;
70757;SDS011;59316;52.964;7.102;2022-07-29T04:18:22;5.60;;;1.90;;
70757;SDS011;59316;52.964;7.102;2022-07-29T04:23:41;5.25;;;1.85;;
70757;SDS011;59316;52.964;7.102;2022-07-29T04:29:01;4.20;;;1.70;;
70757;SDS011;59316;52.964;7.102;2022-07-29T04:34:21;3.42;;;1.80;;
70757;SDS011;59316;52.964;7.102;2022-07-29T04:39:40;3.80;;;1.75;;
70757;SDS011;59316;52.964;7.102;2022-07-29T04:44:59;5.90;;;1.98;;
70757;SDS011;59316;52.964;7.102;2022-07-29T04:50:19;4.15;;;1.70;;
70757;SDS011;59316;52.964;7.102;2022-07-29T04:55:38;2.88;;;1.75;;
70757;SDS011;59316;52.964;7.102;2022-07-29T05:00:57;5.25;;;1.67;;
70757;SDS011;59316;52.964;7.102;2022-07-29T05:06:17;4.75;;;2.15;;
70757;SDS011;59316;52.964;7.102;2022-07-29T05:11:36;3.53;;;1.65;;
70757;SDS011;59316;52.964;7.102;2022-07-29T05:16:56;7.95;;;1.95;;
70757;SDS011;59316;52.964;7.102;2022-07-29T05:22:15;2.65;;;1.55;;
70757;SDS011;59316;52.964;7.102;2022-07-29T05:27:38;3.17;;;1.77;;
70757;SDS011;59316;52.964;7.102;2022-07-29T05:32:57;6.50;;;1.70;;
70757;SDS011;59316;52.964;7.102;2022-07-29T05:38:17;1.70;;;1.30;;
70757;SDS011;59316;52.964;7.102;2022-07-29T05:43:36;6.70;;;1.67;;
70757;SDS011;59316;52.964;7.102;2022-07-29T05:48:56;3.83;;;1.58;;
70757;SDS011;59316;52.964;7.102;2022-07-29T05:54:16;3.22;;;1.80;;
70757;SDS011;59316;52.964;7.102;2022-07-29T05:59:35;4.18;;;1.63;;
70757;SDS011;59316;52.964;7.102;2022-07-29T06:04:56;5.47;;;1.58;;
70757;SDS011;59316;52.964;7.102;2022-07-29T06:10:15;2.47;;;1.67;;
70757;SDS011;59316;52.964;7.102;2022-07-29T06:15:35;4.70;;;1.70;;
70757;SDS011;59316;52.964;7.102;2022-07-29T06:20:54;4.22;;;1.50;;
70757;SDS011;59316;52.964;7.102;2022-07-29T06:26:14;3.38;;;1.88;;
70757;SDS011;59316;52.964;7.102;2022-07-29T06:31:34;3.92;;;2.30;;
70757;SDS011;59316;52.964;7.102;2022-07-29T06:36:53;5.07;;;1.40;;
70757;SDS011;59316;52.964;7.102;2022-07-29T06:42:13;4.88;;;1.52;;
70757;SDS011;59316;52.964;7.102;2022-07-29T06:47:34;4.28;;;1.60;;
70757;SDS011;59316;52.964;7.102;2022-07-29T06:52:53;8.52;;;1.92;;
70757;SDS011;59316;52.964;7.102;2022-07-29T06:58:13;4.32;;;1.85;;
70757;SDS011;59316;52.964;7.102;2022-07-29T07:03:32;3.50;;;1.77;;
70757;SDS011;59316;52.964;7.102;2022-07-29T07:08:52;3.53;;;1.90;;
70757;SDS011;59316;52.964;7.102;2022-07-29T07:14:12;4.22;;;1.52;;
70757;SDS011;59316;52.964;7.102;2022-07-29T07:19:31;5.55;;;1.73;;
70757;SDS011;59316;52.964;7.102;2022-07-29T07:24:51;3.30;;;1.83;;
70757;SDS011;59316;52.964;7.102;2022-07-29T07:30:10;2.65;;;1.52;;
70757;SDS011;59316;52.964;7.102;2022-07-29T07:35:31;5.15;;;1.88;;
70757;SDS011;59316;52.964;7.102;2022-07-29T07:40:51;5.22;;;1.65;;
70757;SDS011;59316;52.964;7.102;2022-07-29T07:46:11;3.95;;;1.83;;
70757;SDS011;59316;52.964;7.102;2022-07-29T07:51:31;4.28;;;1.90;;
70757;SDS011;59316;52.964;7.102;2022-07-29T07:56:50;5.05;;;1.83;;
70757;SDS011;59316;52.964;7.102;2022-07-29T08:02:10;2.40;;;1.55;;
70757;SDS011;59316;52.964;7.102;2022-07-29T08:07:29;5.30;;;1.60;;
70757;SDS011;59316;52.964;7.102;2022-07-29T08:12:49;5.15;;;1.77;;
70757;SDS011;59316;52.964;7.102;2022-07-29T08:18:08;4.82;;;1.75;;
70757;SDS011;59316;52.964;7.102;2022-07-29T08:23:28;4.38;;;1.65;;
70757;SDS011;59316;52.964;7.102;2022-07-29T08:28:48;4.22;;;1.80;;
70757;SDS011;59316;52.964;7.102;2022-07-29T08:34:08;2.78;;;1.88;;
70757;SDS011;59316;52.964;7.102;2022-07-29T08:39:27;6.60;;;1.85;;
70757;SDS011;59316;52.964;7.102;2022-07-29T08:44:47;8.52;;;1.67;;
70757;SDS011;59316;52.964;7.102;2022-07-29T08:50:08;4.43;;;1.67;;
70757;SDS011;59316;52.964;7.102;2022-07-29T08:55:28;5.90;;;1.75;;
70757;SDS011;59316;52.964;7.102;2022-07-29T09:00:50;3.78;;;1.83;;
70757;SDS011;59316;52.964;7.102;2022-07-29T09:06:13;3.53;;;1.80;;
70757;SDS011;59316;52.964;7.102;2022-07-29T09:11:34;5.15;;;1.70;;
70757;SDS011;59316;52.964;7.102;2022-07-29T09:16:54;6.50;;;1.98;;
70757;SDS011;59316;52.964;7.102;2022-07-29T09:22:27;3.90;;;1.98;;
70757;SDS011;59316;52.964;7.102;2022-07-29T09:27:49;4.50;;;1.90;;
70757;SDS011;59316;52.964;7.102;2022-07-29T09:33:09;4.85;;;1.80;;
70757;SDS011;59316;52.964;7.102;2022-07-29T09:38:29;3.05;;;1.70;;
70757;SDS011;59316;52.964;7.102;2022-07-29T09:43:53;2.88;;;2.00;;
70757;SDS011;59316;52.964;7.102;2022-07-29T09:49:17;3.72;;;1.70;;
70757;SDS011;59316;52.964;7.102;2022-07-29T09:54:36;5.43;;;2.30;;
70757;SDS011;59316;52.964;7.102;2022-07-29T10:00:00;3.67;;;1.83;;
70757;SDS011;59316;52.964;7.102;2022-07-29T10:05:30;3.40;;;1.67;;
70757;SDS011;59316;52.964;7.102;2022-07-29T10:10:49;4.65;;;1.90;;
70757;SDS011;59316;52.964;7.102;2022-07-29T10:16:09;4.35;;;1.80;;
70757;SDS011;59316;52.964;7.102;2022-07-29T10:21:30;3.28;;;1.80;;
70757;SDS011;59316;52.964;7.102;2022-07-29T10:26:50;3.92;;;1.95;;
70757;SDS011;59316;52.964;7.102;2022-07-29T10:32:19;5.65;;;1.98;;
70757;SDS011;59316;52.964;7.102;2022-07-29T10:38:27;6.30;;;2.08;;
70757;SDS011;59316;52.964;7.102;2022-07-29T10:50:00;2.83;;;1.80;;
70757;SDS011;59316;52.964;7.102;2022-07-29T10:55:35;4.45;;;1.92;;
70757;SDS011;59316;52.964;7.102;2022-07-29T11:00:57;4.25;;;1.95;;
70757;SDS011;59316;52.964;7.102;2022-07-29T11:23:18;3.58;;;1.90;;
70757;SDS011;59316;52.964;7.102;2022-07-29T11:34:28;3.65;;;2.00;;
70757;SDS011;59316;52.964;7.102;2022-07-29T11:45:17;4.65;;;1.80;;
70757;SDS011;59316;52.964;7.102;2022-07-29T11:50:40;6.22;;;2.20;;
70757;SDS011;59316;52.964;7.102;2022-07-29T11:56:00;2.60;;;1.70;;
70757;SDS011;59316;52.964;7.102;2022-07-29T12:01:20;3.67;;;2.22;;
70757;SDS011;59316;52.964;7.102;2022-07-29T12:06:40;3.85;;;2.10;;
70757;SDS011;59316;52.964;7.102;2022-07-29T12:11:59;4.75;;;2.28;;
70757;SDS011;59316;52.964;7.102;2022-07-29T12:17:28;6.00;;;1.88;;
70757;SDS011;59316;52.964;7.102;2022-07-29T12:22:51;7.63;;;2.30;;
70757;SDS011;59316;52.964;7.102;2022-07-29T12:28:12;4.47;;;2.67;;
70757;SDS011;59316;52.964;7.102;2022-07-29T12:33:33;4.82;;;2.47;;
70757;SDS011;59316;52.964;7.102;2022-07-29T12:38:53;5.22;;;2.75;;
70757;SDS011;59316;52.964;7.102;2022-07-29T12:44:13;5.72;;;2.28;;
70757;SDS011;59316;52.964;7.102;2022-07-29T12:49:32;5.78;;;2.90;;
70757;SDS011;59316;52.964;7.102;2022-07-29T12:54:51;8.30;;;2.65;;
70757;SDS011;59316;52.964;7.102;2022-07-29T13:00:11;5.32;;;2.75;;
70757;SDS011;59316;52.964;7.102;2022-07-29T13:05:39;3.33;;;2.65;;
70757;SDS011;59316;52.964;7.102;2022-07-29T13:11:02;6.45;;;2.28;;
70757;SDS011;59316;52.964;7.102;2022-07-29T13:16:22;4.93;;;2.65;;
70757;SDS011;59316;52.964;7.102;2022-07-29T13:21:42;4.82;;;2.35;;
70757;SDS011;59316;52.964;7.102;2022-07-29T13:27:01;5.38;;;2.80;;
70757;SDS011;59316;52.964;7.102;2022-07-29T13:32:20;10.02;;;2.97;;
70757;SDS011;59316;52.964;7.102;2022-07-29T13:37:41;3.50;;;2.47;;
70757;SDS011;59316;52.964;7.102;2022-07-29T13:43:00;7.75;;;2.97;;
70757;SDS011;59316;52.964;7.102;2022-07-29T13:48:20;6.35;;;2.65;;
70757;SDS011;59316;52.964;7.102;2022-07-29T13:53:40;6.78;;;2.60;;
70757;SDS011;59316;52.964;7.102;2022-07-29T13:58:59;6.93;;;2.85;;
70757;SDS011;59316;52.964;7.102;2022-07-29T14:04:19;5.63;;;2.30;;
70757;SDS011;59316;52.964;7.102;2022-07-29T14:09:38;4.45;;;2.30;;
70757;SDS011;59316;52.964;7.102;2022-07-29T14:14:58;3.45;;;2.42;;
70757;SDS011;59316;52.964;7.102;2022-07-29T14:20:18;4.97;;;2.40;;
70757;SDS011;59316;52.964;7.102;2022-07-29T14:25:38;5.20;;;2.05;;
70757;SDS011;59316;52.964;7.102;2022-07-29T14:30:58;5.18;;;2.33;;
70757;SDS011;59316;52.964;7.102;2022-07-29T14:36:17;3.90;;;2.40;;
70757;SDS011;59316;52.964;7.102;2022-07-29T14:41:37;5.85;;;1.85;;
70757;SDS011;59316;52.964;7.102;2022-07-29T14:46:57;5.30;;;2.50;;
70757;SDS011;59316;52.964;7.102;2022-07-29T14:52:18;5.70;;;2.10;;
70757;SDS011;59316;52.964;7.102;2022-07-29T14:57:38;5.38;;;2.30;;
70757;SDS011;59316;52.964;7.102;2022-07-29T15:02:58;5.40;;;2.50;;
70757;SDS011;59316;52.964;7.102;2022-07-29T15:08:22;4.07;;;2.17;;
70757;SDS011;59316;52.964;7.102;2022-07-29T15:13:41;5.60;;;2.13;;
70757;SDS011;59316;52.964;7.102;2022-07-29T15:19:02;4.50;;;2.30;;
70757;SDS011;59316;52.964;7.102;2022-07-29T15:24:22;4.20;;;1.77;;
70757;SDS011;59316;52.964;7.102;2022-07-29T15:29:43;6.63;;;2.20;;
70757;SDS011;59316;52.964;7.102;2022-07-29T15:35:02;7.10;;;2.13;;
70757;SDS011;59316;52.964;7.102;2022-07-29T15:40:23;5.18;;;1.88;;
70757;SDS011;59316;52.964;7.102;2022-07-29T15:45:43;3.03;;;2.00;;
70757;SDS011;59316;52.964;7.102;2022-07-29T15:51:03;5.72;;;1.90;;
70757;SDS011;59316;52.964;7.102;2022-07-29T15:56:23;8.25;;;2.20;;
70757;SDS011;59316;52.964;7.102;2022-07-29T16:01:43;4.63;;;2.03;;
70757;SDS011;59316;52.964;7.102;2022-07-29T16:07:03;4.35;;;2.50;;
70757;SDS011;59316;52.964;7.102;2022-07-29T16:12:22;5.43;;;1.90;;
70757;SDS011;59316;52.964;7.102;2022-07-29T16:17:42;5.25;;;1.90;;
70757;SDS011;59316;52.964;7.102;2022-07-29T16:23:02;4.45;;;1.67;;
70757;SDS011;59316;52.964;7.102;2022-07-29T16:28:21;5.20;;;2.40;;
70757;SDS011;59316;52.964;7.102;2022-07-29T16:33:41;4.43;;;2.22;;
70757;SDS011;59316;52.964;7.102;2022-07-29T16:39:00;5.80;;;2.20;;
70757;SDS011;59316;52.964;7.102;2022-07-29T16:44:19;6.70;;;1.90;;
70757;SDS011;59316;52.964;7.102;2022-07-29T16:49:39;6.47;;;1.90;;
70757;SDS011;59316;52.964;7.102;2022-07-29T16:54:59;4.03;;;1.90;;
70757;SDS011;59316;52.964;7.102;2022-07-29T17:00:19;5.15;;;1.83;;
70757;SDS011;59316;52.964;7.102;2022-07-29T17:05:39;7.72;;;2.05;;
70757;SDS011;59316;52.964;7.102;2022-07-29T17:10:59;2.88;;;1.70;;
70757;SDS011;59316;52.964;7.102;2022-07-29T17:16:19;7.15;;;2.20;;
70757;SDS011;59316;52.964;7.102;2022-07-29T17:21:38;5.25;;;2.00;;
70757;SDS011;59316;52.964;7.102;2022-07-29T17:26:57;5.68;;;1.77;;
70757;SDS011;59316;52.964;7.102;2022-07-29T17:32:17;4.68;;;2.03;;
70757;SDS011;59316;52.964;7.102;2022-07-29T17:37:37;3.88;;;1.85;;
70757;SDS011;59316;52.964;7.102;2022-07-29T17:42:56;3.90;;;1.58;;
70757;SDS011;59316;52.964;7.102;2022-07-29T17:48:17;5.57;;;1.67;;
70757;SDS011;59316;52.964;7.102;2022-07-29T17:53:37;4.30;;;1.92;;
70757;SDS011;59316;52.964;7.102;2022-07-29T17:58:57;3.38;;;1.95;;
70757;SDS011;59316;52.964;7.102;2022-07-29T18:04:17;4.43;;;2.00;;
70757;SDS011;59316;52.964;7.102;2022-07-29T18:09:37;3.92;;;1.80;;
70757;SDS011;59316;52.964;7.102;2022-07-29T18:14:56;5.60;;;1.65;;
70757;SDS011;59316;52.964;7.102;2022-07-29T18:20:16;2.72;;;1.73;;
70757;SDS011;59316;52.964;7.102;2022-07-29T18:25:36;3.05;;;1.80;;
70757;SDS011;59316;52.964;7.102;2022-07-29T18:30:56;5.05;;;2.00;;
70757;SDS011;59316;52.964;7.102;2022-07-29T18:36:16;4.18;;;2.25;;
70757;SDS011;59316;52.964;7.102;2022-07-29T18:41:36;2.88;;;1.85;;
70757;SDS011;59316;52.964;7.102;2022-07-29T18:46:55;2.92;;;2.13;;
70757;SDS011;59316;52.964;7.102;2022-07-29T18:52:15;4.10;;;2.88;;
70757;SDS011;59316;52.964;7.102;2022-07-29T18:57:34;6.55;;;2.85;;
70757;SDS011;59316;52.964;7.102;2022-07-29T19:02:54;6.18;;;2.70;;
70757;SDS011;59316;52.964;7.102;2022-07-29T19:08:14;3.83;;;2.60;;
70757;SDS011;59316;52.964;7.102;2022-07-29T19:13:33;8.95;;;4.03;;
70757;SDS011;59316;52.964;7.102;2022-07-29T19:18:53;8.40;;;3.55;;
70757;SDS011;59316;52.964;7.102;2022-07-29T19:24:12;7.45;;;5.13;;
70757;SDS011;59316;52.964;7.102;2022-07-29T19:29:32;8.45;;;4.28;;
70757;SDS011;59316;52.964;7.102;2022-07-29T19:34:52;5.80;;;3.80;;
70757;SDS011;59316;52.964;7.102;2022-07-29T19:40:11;8.38;;;3.22;;
70757;SDS011;59316;52.964;7.102;2022-07-29T19:45:31;5.75;;;3.28;;
70757;SDS011;59316;52.964;7.102;2022-07-29T19:50:51;5.03;;;2.95;;
70757;SDS011;59316;52.964;7.102;2022-07-29T19:56:11;8.15;;;4.05;;
70757;SDS011;59316;52.964;7.102;2022-07-29T20:01:30;7.50;;;4.30;;
70757;SDS011;59316;52.964;7.102;2022-07-29T20:06:50;7.60;;;3.83;;
70757;SDS011;59316;52.964;7.102;2022-07-29T20:12:10;8.88;;;4.78;;
70757;SDS011;59316;52.964;7.102;2022-07-29T20:17:30;10.50;;;3.92;;
70757;SDS011;59316;52.964;7.102;2022-07-29T20:22:49;5.68;;;3.90;;
70757;SDS011;59316;52.964;7.102;2022-07-29T20:28:09;9.63;;;5.40;;
70757;SDS011;59316;52.964;7.102;2022-07-29T20:33:28;7.95;;;4.50;;
70757;SDS011;59316;52.964;7.102;2022-07-29T20:38:48;6.30;;;4.78;;
70757;SDS011;59316;52.964;7.102;2022-07-29T20:44:07;7.82;;;4.80;;
70757;SDS011;59316;52.964;7.102;2022-07-29T20:49:27;10.90;;;6.15;;
70757;SDS011;59316;52.964;7.102;2022-07-29T20:54:46;9.98;;;5.18;;
70757;SDS011;59316;52.964;7.102;2022-07-29T21:00:06;11.85;;;7.22;;
70757;SDS011;59316;52.964;7.102;2022-07-29T21:05:27;14.15;;;6.65;;
70757;SDS011;59316;52.964;7.102;2022-07-29T21:10:46;13.20;;;7.13;;
70757;SDS011;59316;52.964;7.102;2022-07-29T21:16:06;12.27;;;7.38;;
70757;SDS011;59316;52.964;7.102;2022-07-29T21:21:26;12.23;;;6.45;;
70757;SDS011;59316;52.964;7.102;2022-07-29T21:26:46;14.20;;;6.65;;
70757;SDS011;59316;52.964;7.102;2022-07-29T21:32:05;16.75;;;8.57;;
70757;SDS011;59316;52.964;7.102;2022-07-29T21:37:25;16.67;;;7.82;;
70757;SDS011;59316;52.964;7.102;2022-07-29T21:42:45;13.25;;;7.43;;
70757;SDS011;59316;52.964;7.102;2022-07-29T21:48:04;15.35;;;7.70;;
70757;SDS011;59316;52.964;7.102;2022-07-29T21:53:24;14.65;;;7.53;;
70757;SDS011;59316;52.964;7.102;2022-07-29T21:58:44;11.70;;;6.82;;
70757;SDS011;59316;52.964;7.102;2022-07-29T22:04:04;11.45;;;6.32;;
70757;SDS011;59316;52.964;7.102;2022-07-29T22:09:24;9.70;;;6.57;;
70757;SDS011;59316;52.964;7.102;2022-07-29T22:14:44;14.70;;;7.45;;
70757;SDS011;59316;52.964;7.102;2022-07-29T22:20:03;17.92;;;8.60;;
70757;SDS011;59316;52.964;7.102;2022-07-29T22:25:23;19.55;;;10.05;;
70757;SDS011;59316;52.964;7.102;2022-07-29T22:30:43;17.02;;;10.48;;
70757;SDS011;59316;52.964;7.102;2022-07-29T22:36:02;11.25;;;8.05;;
70757;SDS011;59316;52.964;7.102;2022-07-29T22:41:22;10.73;;;6.63;;
70757;SDS011;59316;52.964;7.102;2022-07-29T22:46:41;15.38;;;7.55;;
70757;SDS011;59316;52.964;7.102;2022-07-29T22:52:01;17.10;;;10.98;;
70757;SDS011;59316;52.964;7.102;2022-07-29T22:57:21;25.50;;;13.82;;
70757;SDS011;59316;52.964;7.102;2022-07-29T23:02:40;21.55;;;11.95;;
70757;SDS011;59316;52.964;7.102;2022-07-29T23:08:00;20.25;;;12.52;;
70757;SDS011;59316;52.964;7.102;2022-07-29T23:13:20;21.13;;;11.85;;
70757;SDS011;59316;52.964;7.102;2022-07-29T23:18:39;10.15;;;7.43;;
70757;SDS011;59316;52.964;7.102;2022-07-29T23:23:59;10.02;;;7.53;;
70757;SDS011;59316;52.964;7.102;2022-07-29T23:29:18;11.73;;;7.90;;
70757;SDS011;59316;52.964;7.102;2022-07-29T23:34:38;11.98;;;7.03;;
70757;SDS011;59316;52.964;7.102;2022-07-29T23:39:57;14.38;;;8.45;;
70757;SDS011;59316;52.964;7.102;2022-07-29T23:45:17;24.27;;;12.63;;
70757;SDS011;59316;52.964;7.102;2022-07-29T23:50:36;23.90;;;12.07;;
70757;SDS011;59316;52.964;7.102;2022-07-29T23:55:56;19.35;;;11.38;;
